This is the latest recevied weather packets stored in our database for station/object K8JCL-13. If no packets are shown the sender has not sent any weather packets the latest 10 day(s).
| Time | Temp. | Humidity | Pressure | Rain* | Wind** | Luminosity | Snow |
|---|---|---|---|---|---|---|---|
| 1777642104 | 8.33° C | 87% | 1012.2 hPa | 0 mm | - | 14 W/m² | - |
| 1777641801 | 8.89° C | 87% | 1012.3 hPa | 0 mm | - | 15 W/m² | - |
| 1777641496 | 8.89° C | 86% | 1012.2 hPa | 0 mm | - | 23 W/m² | - |
| 1777641191 | 8.89° C | 87% | 1012.1 hPa | 0 mm | - | 35 W/m² | - |
| 1777640888 | 8.89° C | 86% | 1011.9 hPa | 0 mm | - | 36 W/m² | - |
| 1777639675 | 8.33° C | 88% | 1012.2 hPa | 0 mm | - | 86 W/m² | - |
| 1777639067 | 8.33° C | 86% | 1012.3 hPa | 0 mm | - | 22 W/m² | - |
| 1777638764 | 8.89° C | 83% | 1012.3 hPa | 0 mm | - | 18 W/m² | - |
| 1777638460 | 8.33° C | 81% | 1012.4 hPa | 0 mm | - | 20 W/m² | - |
| 1777638158 | 8.33° C | 81% | 1012.1 hPa | 0 mm | - | 15 W/m² | - |
| 1777637852 | 8.33° C | 82% | 1012.1 hPa | 0 mm | - | 22 W/m² | - |
| 1777637549 | 8.33° C | 81% | 1012 hPa | 0 mm | - | 20 W/m² | - |
| 1777637247 | 8.33° C | 80% | 1012 hPa | 0 mm | - | 11 W/m² | - |
| 1777636944 | 8.33° C | 80% | 1011.9 hPa | 0 mm | - | 9 W/m² | - |
| 1777636639 | 8.33° C | 80% | 1012 hPa | 0 mm | - | 7 W/m² | - |
| 1777636336 | 8.33° C | 80% | 1012 hPa | 0 mm | - | 12 W/m² | - |
| 1777635732 | 8.33° C | 79% | 1011.9 hPa | 0 mm | - | 14 W/m² | - |
| 1777635429 | 8.33° C | 79% | 1011.9 hPa | 0 mm | - | 9 W/m² | - |
| 1777635126 | 8.33° C | 77% | 1012 hPa | 0 mm | - | 4 W/m² | - |
| 1777634822 | 8.33° C | 77% | 1011.9 hPa | 0 mm | - | 4 W/m² | - |
| 1777634519 | 8.33° C | 77% | 1011.9 hPa | 0 mm | - | 4 W/m² | - |
| 1777634215 | 8.33° C | 75% | 1011.9 hPa | 0 mm | - | 4 W/m² | - |
| 1777633912 | 8.33° C | 76% | 1012 hPa | 0 mm | - | 4 W/m² | - |
| 1777633610 | 8.33° C | 76% | 1012.1 hPa | 0 mm | - | 3 W/m² | - |
| 1777633308 | 8.33° C | 77% | 1012 hPa | 0 mm | - | 3 W/m² | - |
* Rain latest hour (hover to see other rain measurements)
** Current wind speed in m/s (hover to see current wind gust speed)